Time;durP1;ratioP1;P1;durP2;ratioP2;P2;SDS_P1;SDS_P2;PMS_P1;PMS_P2;Temp;Humidity;BMP_temperature;BMP_pressure;BME280_temperature;BME280_humidity;BME280_pressure;Samples;Min_cycle;Max_cycle;Signal;HPM_P1;HPM_P2
2021/08/08 00:01:50;;;;;;;;;;;;;;;-144.99;100.00;52358.41;5014576;28;19968;-65
2021/08/08 00:04:16;;;;;;;;;;;;;;;-144.99;100.00;52362.50;5013873;28;20373;-66
2021/08/08 00:06:43;;;;;;;;;;;;;;;-144.99;100.00;52403.25;5002359;28;20020;-67
2021/08/08 00:09:09;;;;;;;;;;;;;;;-144.99;100.00;52399.19;4996403;28;19986;-66
2021/08/08 00:11:37;;;;;;;;;;;;;;;-144.99;100.00;52407.31;5009772;28;19942;-66
2021/08/08 00:14:04;;;;;;;;;;;;;;;-144.99;100.00;52382.88;5009139;28;19933;-67
2021/08/08 00:16:30;;;;;;;;;;;;;;;-144.99;100.00;52382.88;5022416;28;19943;-69
2021/08/08 00:18:56;;;;;;;;;;;;;;;-144.99;100.00;52350.25;5014744;28;19973;-69
2021/08/08 00:21:23;;;;;;;;;;;;;;;-144.99;100.00;52386.94;5010685;28;19946;-69
2021/08/08 00:23:49;;;;;;;;;;;;;;;-144.99;100.00;52395.09;5014871;28;19945;-70
2021/08/08 00:26:16;;;;;;;;;;;;;;;-144.99;100.00;52378.78;5015655;28;19955;-73
2021/08/08 00:28:45;;;;;;;;;;;;;;;-144.99;100.00;52350.25;5010111;28;19979;-72
2021/08/08 00:31:12;;;;;;;;;;;;;;;-144.99;100.00;52437.91;5009287;28;19989;-72
2021/08/08 00:33:38;;;;;;;;;;;;;;;-144.99;100.00;52376.75;5017994;28;19954;-72
2021/08/08 00:36:05;;;;;;;;;;;;;;;-144.99;100.00;52391.03;5013000;28;19955;-72
2021/08/08 00:38:31;;;;;;;;;;;;;;;-144.99;100.00;52362.50;5017888;28;19979;-71
2021/08/08 00:40:58;;;;;;;;;;;;;;;-144.99;100.00;52411.41;5011044;28;19963;-73
2021/08/08 00:43:24;;;;;;;;;;;;;;;-144.99;100.00;52354.34;4663784;28;10000233;-72
2021/08/08 00:45:52;;;;;;;;;;;;;;;-144.99;100.00;52395.09;5009434;28;19943;-66
2021/08/08 00:48:18;;;;;;;;;;;;;;;-144.99;100.00;52378.78;5024886;28;20320;-68
2021/08/08 00:50:44;;;;;;;;;;;;;;;-144.99;100.00;52374.72;5008650;28;19957;-71
2021/08/08 00:53:11;;;;;;;;;;;;;;;-144.99;100.00;52372.69;5017022;28;19953;-67
2021/08/08 00:55:38;;;;;;;;;;;;;;;-144.99;100.00;52378.78;5014694;28;20446;-67
2021/08/08 00:58:04;;;;;;;;;;;;;;;-144.99;100.00;52374.72;5011409;28;19930;-66
2021/08/08 01:00:30;;;;;;;;;;;;;;;-144.99;100.00;52382.88;5009062;28;19957;-67
2021/08/08 01:03:02;;;;;;;;;;;;;;;-144.99;100.00;52382.88;5016968;28;19952;-67
2021/08/08 01:05:32;;;;;;;;;;;;;;;-144.99;100.00;52407.31;5013637;28;20433;-66
2021/08/08 01:08:02;;;;;;;;;;;;;;;-144.99;100.00;52354.34;5017563;28;19932;-67
2021/08/08 01:10:28;;;;;;;;;;;;;;;-144.99;100.00;52378.78;5013248;28;19970;-66
2021/08/08 01:12:55;;;;;;;;;;;;;;;-144.99;100.00;52374.72;5011006;28;19954;-67
2021/08/08 01:15:22;;;;;;;;;;;;;;;-144.99;100.00;52407.31;5016551;28;19973;-72
2021/08/08 01:17:48;;;;;;;;;;;;;;;-144.99;100.00;52391.03;5021302;28;19925;-70
2021/08/08 01:20:17;;;;;;;;;;;;;;;-144.99;100.00;52374.72;5012780;28;20441;-71
2021/08/08 01:22:44;;;;;;;;;;;;;;;-144.99;100.00;52384.91;5014948;28;19954;-67
2021/08/08 01:25:13;;;;;;;;;;;;;;;-144.99;100.00;52425.66;5023057;28;19964;-66
2021/08/08 01:27:40;;;;;;;;;;;;;;;-144.99;100.00;52415.47;5010325;28;19963;-65
2021/08/08 01:30:07;;;;;;;;;;;;;;;-144.99;100.00;52407.31;5018742;28;19964;-65
2021/08/08 01:32:34;;;;;;;;;;;;;;;-144.99;100.00;52433.81;5017249;28;19952;-63
2021/08/08 01:35:00;;;;;;;;;;;;;;;-144.99;100.00;52376.75;5010869;28;20499;-62
2021/08/08 01:37:29;;;;;;;;;;;;;;;-144.99;100.00;52413.44;5012308;28;20448;-63
2021/08/08 01:39:58;;;;;;;;;;;;;;;-144.99;100.00;52370.63;5021039;28;20370;-63
2021/08/08 01:42:26;;;;;;;;;;;;;;;-144.99;100.00;52386.94;5012501;28;19953;-63
2021/08/08 01:44:54;;;;;;;;;;;;;;;-144.99;100.00;52386.94;5011062;28;19940;-62
2021/08/08 01:47:23;;;;;;;;;;;;;;;-144.99;100.00;52382.88;5010491;28;20316;-62
2021/08/08 01:49:50;;;;;;;;;;;;;;;-144.99;100.00;52358.41;5014368;28;19967;-62
2021/08/08 01:52:17;;;;;;;;;;;;;;;-144.99;100.00;52468.47;5013158;28;19945;-62
2021/08/08 01:54:44;;;;;;;;;;;;;;;-144.99;100.00;52407.31;5020338;28;19976;-62
2021/08/08 01:57:10;;;;;;;;;;;;;;;-144.99;100.00;52386.94;5019074;28;19943;-62
2021/08/08 01:59:38;;;;;;;;;;;;;;;-144.99;100.00;52429.75;5012289;28;20306;-62
2021/08/08 02:02:08;;;;;;;;;;;;;;;-144.99;100.00;52417.53;5020290;28;19925;-62
2021/08/08 02:04:35;;;;;;;;;;;;;;;-144.99;100.00;52403.25;5018768;28;19966;-62
2021/08/08 02:07:02;;;;;;;;;;;;;;;-144.99;100.00;52386.94;5009618;28;19943;-62
2021/08/08 02:09:28;;;;;;;;;;;;;;;-144.99;100.00;52378.78;5010426;28;20432;-63
2021/08/08 02:11:54;;;;;;;;;;;;;;;-144.99;100.00;52391.03;5023172;28;19952;-62
2021/08/08 02:14:21;;;;;;;;;;;;;;;-144.99;100.00;52423.63;5010907;28;19947;-62
2021/08/08 02:16:48;;;;;;;;;;;;;;;-144.99;100.00;52407.31;5022011;28;20452;-62
2021/08/08 02:19:15;;;;;;;;;;;;;;;-144.99;100.00;52386.94;5012826;28;19967;-62
2021/08/08 02:21:41;;;;;;;;;;;;;;;-144.99;100.00;52391.03;5009724;28;20068;-65
2021/08/08 02:24:07;;;;;;;;;;;;;;;-144.99;100.00;52409.38;5023705;28;20431;-65
2021/08/08 02:26:34;;;;;;;;;;;;;;;-144.99;100.00;52382.88;5013392;28;20407;-65
2021/08/08 02:29:00;;;;;;;;;;;;;;;-144.99;100.00;52415.47;5009592;28;20356;-65
2021/08/08 02:31:26;;;;;;;;;;;;;;;-144.99;100.00;52391.03;5017106;28;19955;-65
2021/08/08 02:33:54;;;;;;;;;;;;;;;-144.99;100.00;52407.31;5016355;28;19972;-66
2021/08/08 02:36:21;;;;;;;;;;;;;;;-144.99;100.00;52399.19;5009889;28;20167;-65
2021/08/08 02:38:47;;;;;;;;;;;;;;;-144.99;100.00;52391.03;5015135;28;19971;-65
2021/08/08 02:41:13;;;;;;;;;;;;;;;-144.99;100.00;52429.75;5008763;28;20382;-65
2021/08/08 02:43:40;;;;;;;;;;;;;;;-144.99;100.00;52433.81;5021688;28;20305;-66
2021/08/08 02:46:06;;;;;;;;;;;;;;;-144.99;100.00;52421.59;5011715;28;20037;-67
2021/08/08 02:48:35;;;;;;;;;;;;;;;-144.99;100.00;52366.56;5010404;28;19965;-66
2021/08/08 02:51:02;;;;;;;;;;;;;;;-144.99;100.00;52419.56;5006310;28;19939;-66
2021/08/08 02:53:29;;;;;;;;;;;;;;;-144.99;100.00;52407.31;5022500;28;20468;-66
2021/08/08 02:55:55;;;;;;;;;;;;;;;-144.99;100.00;52403.25;5014755;28;20394;-67
2021/08/08 02:58:22;;;;;;;;;;;;;;;-144.99;100.00;52393.06;5010069;28;19953;-67
2021/08/08 03:00:48;;;;;;;;;;;;;;;-144.99;100.00;52401.22;5009336;28;19969;-67
2021/08/08 03:03:14;;;;;;;;;;;;;;;-144.99;100.00;52419.56;5009864;28;19958;-68
2021/08/08 03:05:41;;;;;;;;;;;;;;;-144.99;100.00;52421.59;5019138;28;20051;-68
2021/08/08 03:08:09;;;;;;;;;;;;;;;-144.99;100.00;52419.56;5016878;28;19961;-67
2021/08/08 03:10:35;;;;;;;;;;;;;;;-144.99;100.00;52456.25;5010734;28;19942;-68
2021/08/08 03:13:01;;;;;;;;;;;;;;;-144.99;100.00;52413.44;5015515;28;19961;-66
2021/08/08 03:15:28;;;;;;;;;;;;;;;-144.99;100.00;52395.09;5018278;28;19941;-68
2021/08/08 03:17:54;;;;;;;;;;;;;;;-144.99;100.00;52419.56;5026152;28;19947;-68
2021/08/08 03:20:21;;;;;;;;;;;;;;;-144.99;100.00;52384.91;5012942;28;20065;-68
2021/08/08 03:22:47;;;;;;;;;;;;;;;-144.99;100.00;52425.66;5015413;28;19945;-68
2021/08/08 03:25:15;;;;;;;;;;;;;;;-144.99;100.00;52413.44;5022463;28;19949;-69
2021/08/08 03:27:41;;;;;;;;;;;;;;;-144.99;100.00;52431.78;5013642;28;19970;-69
2021/08/08 03:30:08;;;;;;;;;;;;;;;-144.99;100.00;52454.22;5014143;28;19958;-69
2021/08/08 03:32:34;;;;;;;;;;;;;;;-144.99;100.00;52419.56;5016704;28;20068;-68
2021/08/08 03:35:01;;;;;;;;;;;;;;;-144.99;100.00;52427.72;5027797;28;19954;-70
2021/08/08 03:37:27;;;;;;;;;;;;;;;-144.99;100.00;52399.19;5014045;28;20402;-70
2021/08/08 03:39:53;;;;;;;;;;;;;;;-144.99;100.00;52403.25;5012740;28;19965;-68
2021/08/08 03:42:21;;;;;;;;;;;;;;;-144.99;100.00;52427.72;5009994;28;19968;-70
2021/08/08 03:44:50;;;;;;;;;;;;;;;-144.99;100.00;52403.25;5014269;28;19963;-69
2021/08/08 03:47:18;;;;;;;;;;;;;;;-144.99;100.00;52395.09;5022735;28;19944;-69
2021/08/08 03:49:45;;;;;;;;;;;;;;;-144.99;100.00;52419.56;5012712;28;19952;-68
2021/08/08 03:52:11;;;;;;;;;;;;;;;-144.99;100.00;52358.41;5011290;28;19947;-68
2021/08/08 03:54:37;;;;;;;;;;;;;;;-144.99;100.00;52362.50;5009640;28;19925;-64
2021/08/08 03:57:04;;;;;;;;;;;;;;;-144.99;100.00;52382.88;5012631;28;20709;-64
2021/08/08 03:59:32;;;;;;;;;;;;;;;-144.99;100.00;52395.09;5012453;28;19964;-64
2021/08/08 04:01:58;;;;;;;;;;;;;;;-144.99;100.00;52435.88;5018174;28;19959;-65
2021/08/08 04:04:24;;;;;;;;;;;;;;;-144.99;100.00;52391.03;5016754;28;19971;-65
2021/08/08 04:06:51;;;;;;;;;;;;;;;-144.99;100.00;52384.91;5031576;28;20417;-65
2021/08/08 04:09:17;;;;;;;;;;;;;;;-144.99;100.00;52427.72;5012183;28;19963;-64
2021/08/08 04:11:43;;;;;;;;;;;;;;;-144.99;100.00;52431.78;5012600;28;19943;-66
2021/08/08 04:14:10;;;;;;;;;;;;;;;-144.99;100.00;52403.25;5010969;28;19941;-66
2021/08/08 04:16:37;;;;;;;;;;;;;;;-144.99;100.00;52407.31;5021533;28;19950;-67
2021/08/08 04:19:04;;;;;;;;;;;;;;;-144.99;100.00;52366.56;5023416;28;19958;-67
2021/08/08 04:21:30;;;;;;;;;;;;;;;-144.99;100.00;52399.19;5015382;28;19963;-67
2021/08/08 04:23:56;;;;;;;;;;;;;;;-144.99;100.00;52423.63;5017334;28;19942;-66
2021/08/08 04:26:23;;;;;;;;;;;;;;;-144.99;100.00;52380.84;5021866;28;19994;-65
2021/08/08 04:28:49;;;;;;;;;;;;;;;-144.99;100.00;52401.22;5011567;28;20046;-67
2021/08/08 04:31:15;;;;;;;;;;;;;;;-144.99;100.00;52399.19;5010917;28;19945;-61
2021/08/08 04:33:43;;;;;;;;;;;;;;;-144.99;100.00;52423.63;5011123;28;19941;-61
2021/08/08 04:36:09;;;;;;;;;;;;;;;-144.99;100.00;52366.56;5009382;28;19933;-61
2021/08/08 04:38:36;;;;;;;;;;;;;;;-144.99;100.00;52435.88;5016538;28;19980;-62
2021/08/08 04:41:03;;;;;;;;;;;;;;;-144.99;100.00;52419.56;5028067;28;20115;-61
2021/08/08 04:43:29;;;;;;;;;;;;;;;-144.99;100.00;52423.63;5011520;28;19951;-61
2021/08/08 04:45:55;;;;;;;;;;;;;;;-144.99;100.00;52454.22;5010314;28;20320;-61
2021/08/08 04:48:22;;;;;;;;;;;;;;;-144.99;100.00;52411.41;5027103;28;19932;-62
2021/08/08 04:50:49;;;;;;;;;;;;;;;-144.99;100.00;52419.56;5011171;28;19947;-61
2021/08/08 04:53:16;;;;;;;;;;;;;;;-144.99;100.00;52358.41;5002124;28;19959;-62
2021/08/08 04:55:43;;;;;;;;;;;;;;;-144.99;100.00;52407.31;5010632;28;19956;-62
2021/08/08 04:58:09;;;;;;;;;;;;;;;-144.99;100.00;52403.25;5024445;28;19947;-62
2021/08/08 05:00:36;;;;;;;;;;;;;;;-144.99;100.00;52411.41;5013241;28;20446;-64
2021/08/08 05:03:02;;;;;;;;;;;;;;;-144.99;100.00;52362.50;5024457;28;19941;-61
2021/08/08 05:05:29;;;;;;;;;;;;;;;-144.99;100.00;52380.84;5010703;28;20003;-61
2021/08/08 05:07:57;;;;;;;;;;;;;;;-144.99;100.00;52391.03;5014237;28;19988;-61
2021/08/08 05:10:24;;;;;;;;;;;;;;;-144.99;100.00;52407.31;5012138;28;19925;-61
2021/08/08 05:12:51;;;;;;;;;;;;;;;-144.99;100.00;52366.56;5011309;28;20016;-62
2021/08/08 05:15:17;;;;;;;;;;;;;;;-144.99;100.00;52388.97;5011294;28;19950;-63
2021/08/08 05:17:43;;;;;;;;;;;;;;;-144.99;100.00;52399.19;5010979;28;19940;-67
2021/08/08 05:20:10;;;;;;;;;;;;;;;-144.99;100.00;52431.78;5017659;28;19976;-67
2021/08/08 05:22:37;;;;;;;;;;;;;;;-144.99;100.00;52374.72;5021916;28;19960;-65
2021/08/08 05:25:05;;;;;;;;;;;;;;;-144.99;100.00;52342.09;5012366;28;19955;-64
2021/08/08 05:27:33;;;;;;;;;;;;;;;-144.99;100.00;52358.41;5011370;28;19950;-65
2021/08/08 05:30:00;;;;;;;;;;;;;;;-144.99;100.00;52395.09;5007983;28;20490;-65
2021/08/08 05:32:26;;;;;;;;;;;;;;;-144.99;100.00;52403.25;5020342;28;19959;-65
2021/08/08 05:34:52;;;;;;;;;;;;;;;-144.99;100.00;52382.88;5018543;28;19938;-65
2021/08/08 05:37:19;;;;;;;;;;;;;;;-144.99;100.00;52372.69;5010573;28;19940;-65
2021/08/08 05:39:45;;;;;;;;;;;;;;;-144.99;100.00;52366.56;5009993;28;19968;-65
2021/08/08 05:42:13;;;;;;;;;;;;;;;-144.99;100.00;52382.88;5017145;28;19956;-65
2021/08/08 05:44:39;;;;;;;;;;;;;;;-144.99;100.00;52380.84;5007896;28;19943;-65
2021/08/08 05:47:06;;;;;;;;;;;;;;;-144.99;100.00;52382.88;5010152;28;19949;-65
2021/08/08 05:49:34;;;;;;;;;;;;;;;-144.99;99.58;52366.56;5010573;28;20329;-65
2021/08/08 05:52:00;;;;;;;;;;;;;;;-144.99;99.36;52378.78;5014188;28;19947;-66
2021/08/08 05:54:26;;;;;;;;;;;;;;;-144.99;98.01;52382.88;5018592;28;19940;-66
2021/08/08 05:56:53;;;;;;;;;;;;;;;-144.99;97.86;52382.88;5015300;28;19941;-65
2021/08/08 05:59:20;;;;;;;;;;;;;;;-144.99;98.27;52352.28;5010100;28;19933;-66
2021/08/08 06:01:47;;;;;;;;;;;;;;;-144.99;98.56;52403.25;5013326;28;19959;-65
2021/08/08 06:04:13;;;;;;;;;;;;;;;-144.99;98.71;52395.09;5019528;28;19944;-67
2021/08/08 06:06:40;;;;;;;;;;;;;;;-144.99;99.42;52380.84;5010141;28;19946;-67
2021/08/08 06:09:06;;;;;;;;;;;;;;;-144.99;100.00;52395.09;5010002;28;19932;-68
2021/08/08 06:11:32;;;;;;;;;;;;;;;-144.99;100.00;52362.50;5010010;28;19933;-63
2021/08/08 06:13:59;;;;;;;;;;;;;;;-144.99;100.00;52419.56;5026495;28;20331;-63
2021/08/08 06:16:26;;;;;;;;;;;;;;;-144.99;100.00;52395.09;5021867;28;19951;-63
2021/08/08 06:18:53;;;;;;;;;;;;;;;-144.99;100.00;52399.19;5031706;28;19955;-66
2021/08/08 06:21:19;;;;;;;;;;;;;;;-144.99;100.00;52370.63;5017363;28;19960;-66
2021/08/08 06:23:45;;;;;;;;;;;;;;;-144.99;100.00;52419.56;5030522;28;19939;-67
2021/08/08 06:26:12;;;;;;;;;;;;;;;-144.99;100.00;52423.63;5020541;28;19971;-63
2021/08/08 06:28:38;;;;;;;;;;;;;;;-144.99;100.00;52419.56;5016581;28;20392;-63
2021/08/08 06:31:04;;;;;;;;;;;;;;;-144.99;100.00;52407.31;5015818;28;19946;-63
2021/08/08 06:33:32;;;;;;;;;;;;;;;-144.99;100.00;52403.25;5017134;28;19948;-63
2021/08/08 06:35:59;;;;;;;;;;;;;;;-144.99;100.00;52378.78;5025681;28;19953;-63
2021/08/08 06:38:25;;;;;;;;;;;;;;;-144.99;100.00;52399.19;5021910;28;20337;-63
2021/08/08 06:40:51;;;;;;;;;;;;;;;-144.99;100.00;52374.72;5016321;28;20333;-63
2021/08/08 06:43:18;;;;;;;;;;;;;;;-144.99;100.00;52409.38;5011099;28;19956;-63
2021/08/08 06:45:44;;;;;;;;;;;;;;;-144.99;100.00;52413.44;5010320;28;20196;-63
2021/08/08 06:48:10;;;;;;;;;;;;;;;-144.99;100.00;52415.47;5023962;28;19946;-63
2021/08/08 06:50:38;;;;;;;;;;;;;;;-144.99;100.00;52399.19;5010281;28;19959;-63
2021/08/08 06:53:05;;;;;;;;;;;;;;;-144.99;100.00;52415.47;5002531;28;20466;-63
2021/08/08 06:55:31;;;;;;;;;;;;;;;-144.99;100.00;52403.25;5018347;28;19947;-63
2021/08/08 06:57:57;;;;;;;;;;;;;;;-144.99;100.00;52382.88;5019270;28;19960;-63
2021/08/08 07:00:24;;;;;;;;;;;;;;;-144.99;100.00;52391.03;5020921;28;19982;-66
2021/08/08 07:02:51;;;;;;;;;;;;;;;-144.99;100.00;52378.78;5025322;28;19964;-63
2021/08/08 07:05:17;;;;;;;;;;;;;;;-144.99;100.00;52393.06;5015553;28;19962;-64
2021/08/08 07:07:45;;;;;;;;;;;;;;;-144.99;100.00;52356.38;5023179;28;20015;-65
2021/08/08 07:10:12;;;;;;;;;;;;;;;-144.99;100.00;52415.47;5023753;28;19975;-64
2021/08/08 07:12:38;;;;;;;;;;;;;;;-144.99;100.00;52395.09;5013783;28;19955;-63
2021/08/08 07:15:06;;;;;;;;;;;;;;;-144.99;100.00;52419.56;5013475;28;19961;-63
2021/08/08 07:17:32;;;;;;;;;;;;;;;-144.99;100.00;52362.50;5016564;28;19949;-63
2021/08/08 07:19:58;;;;;;;;;;;;;;;-144.99;100.00;52415.47;5020422;28;19970;-62
2021/08/08 07:22:25;;;;;;;;;;;;;;;-144.99;100.00;52368.59;5021475;28;20009;-62
2021/08/08 07:24:52;;;;;;;;;;;;;;;-144.99;100.00;52395.09;5013522;28;19958;-66
2021/08/08 07:27:19;;;;;;;;;;;;;;;-144.99;100.00;52427.72;5013105;28;19962;-67
2021/08/08 07:29:45;;;;;;;;;;;;;;;-144.99;100.00;52378.78;5015585;28;19933;-67
2021/08/08 07:32:12;;;;;;;;;;;;;;;-144.99;100.00;52384.91;5027231;28;19932;-63
2021/08/08 07:34:38;;;;;;;;;;;;;;;-144.99;100.00;52374.72;5010352;28;19965;-63
2021/08/08 07:37:04;;;;;;;;;;;;;;;-144.99;100.00;52391.03;5012584;28;19949;-68
2021/08/08 07:39:32;;;;;;;;;;;;;;;-144.99;100.00;52393.06;5020740;28;19966;-67
2021/08/08 07:41:59;;;;;;;;;;;;;;;-144.99;100.00;52401.22;5017855;28;19974;-64
2021/08/08 07:44:26;;;;;;;;;;;;;;;-144.99;100.00;52374.72;5012781;28;19951;-65
2021/08/08 07:46:52;;;;;;;;;;;;;;;-144.99;100.00;52399.19;5012203;28;19955;-64
2021/08/08 07:49:18;;;;;;;;;;;;;;;-144.99;100.00;52378.78;5011959;28;19962;-63
2021/08/08 07:51:45;;;;;;;;;;;;;;;-144.99;100.00;52358.41;5023163;28;20275;-64
2021/08/08 07:54:11;;;;;;;;;;;;;;;-144.99;100.00;52364.53;5013723;28;19970;-65
2021/08/08 07:56:38;;;;;;;;;;;;;;;-144.99;100.00;52360.44;5017408;28;19949;-63
2021/08/08 07:59:05;;;;;;;;;;;;;;;-144.99;100.00;52407.31;5010715;28;20459;-63
2021/08/08 08:01:32;;;;;;;;;;;;;;;-144.99;100.00;52354.34;5021913;28;20354;-62
2021/08/08 08:03:59;;;;;;;;;;;;;;;-144.99;100.00;52391.03;5023537;28;19947;-63
2021/08/08 08:06:25;;;;;;;;;;;;;;;-144.99;100.00;52407.31;5026317;28;19964;-63
2021/08/08 08:08:52;;;;;;;;;;;;;;;-144.99;100.00;52391.03;5021602;28;19974;-64
2021/08/08 08:11:18;;;;;;;;;;;;;;;-144.99;100.00;52407.31;5020178;28;19953;-63
2021/08/08 08:13:44;;;;;;;;;;;;;;;-144.99;100.00;52407.31;5012541;28;20089;-63
2021/08/08 08:16:12;;;;;;;;;;;;;;;-144.99;100.00;52399.19;5012074;28;19945;-63
2021/08/08 08:18:38;;;;;;;;;;;;;;;-144.99;100.00;52391.03;5021375;28;20323;-64
2021/08/08 08:21:05;;;;;;;;;;;;;;;-144.99;100.00;52382.88;5023090;28;20311;-63
2021/08/08 08:23:31;;;;;;;;;;;;;;;-144.99;100.00;52399.19;5013254;28;19967;-63
2021/08/08 08:25:57;;;;;;;;;;;;;;;-144.99;100.00;52331.91;5011979;28;19959;-64
2021/08/08 08:28:29;;;;;;;;;;;;;;;-144.99;100.00;52431.78;5012650;28;19978;-63
2021/08/08 08:30:55;;;;;;;;;;;;;;;-144.99;100.00;52374.72;5019428;28;19958;-63
2021/08/08 08:33:23;;;;;;;;;;;;;;;-144.99;100.00;52346.19;5020775;28;19962;-63
2021/08/08 08:35:49;;;;;;;;;;;;;;;-144.99;100.00;52362.50;5011350;28;19960;-64
2021/08/08 08:38:16;;;;;;;;;;;;;;;-144.99;100.00;52321.72;5010745;28;20032;-64
2021/08/08 08:40:43;;;;;;;;;;;;;;;-144.99;100.00;52370.63;5019469;28;19941;-64
2021/08/08 08:43:10;;;;;;;;;;;;;;;-144.99;100.00;52309.50;5019101;28;20020;-63
2021/08/08 08:45:37;;;;;;;;;;;;;;;-144.99;100.00;52358.41;5011453;28;20015;-64
2021/08/08 08:48:04;;;;;;;;;;;;;;;-144.99;100.00;52338.03;5013469;28;20056;-64
2021/08/08 08:50:32;;;;;;;;;;;;;;;-144.99;100.00;52356.38;5014506;28;19957;-64
2021/08/08 08:52:58;;;;;;;;;;;;;;;-144.99;100.00;52350.25;5025184;28;19953;-64
2021/08/08 08:55:25;;;;;;;;;;;;;;;-144.99;100.00;52340.06;5023790;28;19955;-64
2021/08/08 08:57:51;;;;;;;;;;;;;;;-144.99;100.00;52323.75;5013849;28;19955;-64
2021/08/08 09:00:18;;;;;;;;;;;;;;;-144.99;100.00;52317.66;5013700;28;19976;-64
2021/08/08 09:02:44;;;;;;;;;;;;;;;-144.99;100.00;52342.09;5013612;28;20331;-64
2021/08/08 09:05:11;;;;;;;;;;;;;;;-144.99;100.00;52309.50;5024048;28;20382;-65
2021/08/08 09:07:38;;;;;;;;;;;;;;;-144.99;100.00;52338.03;5024634;28;19950;-64
2021/08/08 09:10:09;;;;;;;;;;;;;;;-144.99;100.00;52329.88;5018387;28;19971;-64
2021/08/08 09:12:36;;;;;;;;;;;;;;;-144.99;100.00;52364.53;5014724;28;19957;-65
2021/08/08 09:15:04;;;;;;;;;;;;;;;-144.99;100.00;52368.59;5021903;28;19941;-64
2021/08/08 09:17:35;;;;;;;;;;;;;;;-144.99;100.00;52399.19;5019339;28;19925;-65
2021/08/08 09:20:03;;;;;;;;;;;;;;;-144.99;100.00;52378.78;5016297;28;19970;-65
2021/08/08 09:22:30;;;;;;;;;;;;;;;-144.99;100.00;52362.50;5010338;28;19957;-62
2021/08/08 09:24:58;;;;;;;;;;;;;;;-144.99;100.00;52362.50;5021043;28;19941;-63
2021/08/08 09:27:31;;;;;;;;;;;;;;;-144.99;100.00;52366.56;5019704;28;19949;-63
2021/08/08 09:29:57;;;;;;;;;;;;;;;-144.99;100.00;52395.09;5012410;28;19929;-63
2021/08/08 09:32:29;;;;;;;;;;;;;;;-144.99;100.00;52348.22;5014819;28;19951;-63
2021/08/08 09:35:04;;;;;;;;;;;;;;;-144.99;100.00;52382.88;5025040;28;20375;-63
2021/08/08 09:37:30;;;;;;;;;;;;;;;-144.99;100.00;52342.09;5011167;28;20321;-63
2021/08/08 09:39:58;;;;;;;;;;;;;;;-144.99;100.00;52370.63;5010992;28;19977;-63
2021/08/08 09:42:26;;;;;;;;;;;;;;;-144.99;100.00;52370.63;5010033;28;19990;-63
2021/08/08 09:44:54;;;;;;;;;;;;;;;-144.99;100.00;52362.50;5021619;28;19955;-64
2021/08/08 09:47:21;;;;;;;;;;;;;;;-144.99;100.00;52364.53;5014984;28;20576;-65
2021/08/08 09:49:54;;;;;;;;;;;;;;;-144.99;100.00;52370.63;5010523;28;19992;-63
2021/08/08 09:52:21;;;;;;;;;;;;;;;-144.99;100.00;52364.53;5013869;28;19954;-63
2021/08/08 09:54:47;;;;;;;;;;;;;;;-144.99;100.00;52397.13;5008781;28;19965;-63
2021/08/08 09:57:15;;;;;;;;;;;;;;;-144.99;100.00;52386.94;5018252;28;19953;-65
2021/08/08 09:59:45;;;;;;;;;;;;;;;-144.99;100.00;52340.06;5009467;28;19974;-69
2021/08/08 10:02:15;;;;;;;;;;;;;;;-144.99;100.00;52362.50;5009084;28;19968;-68
2021/08/08 10:04:41;;;;;;;;;;;;;;;-144.99;100.00;52352.28;5005816;28;19958;-70
2021/08/08 10:07:07;;;;;;;;;;;;;;;-144.99;100.00;52362.50;5021942;28;20042;-69
2021/08/08 10:09:34;;;;;;;;;;;;;;;-144.99;100.00;52338.03;5019652;28;20320;-69
2021/08/08 10:12:08;;;;;;;;;;;;;;;-144.99;100.00;52333.94;5008428;28;19962;-70
2021/08/08 10:14:36;;;;;;;;;;;;;;;-144.99;99.83;52325.81;5010634;28;19947;-69
2021/08/08 10:17:02;;;;;;;;;;;;;;;-144.99;100.00;52350.25;5014319;28;20073;-69
2021/08/08 10:19:29;;;;;;;;;;;;;;;-144.99;98.83;52358.41;5018824;28;19960;-69
2021/08/08 10:21:55;;;;;;;;;;;;;;;-144.99;98.76;52342.09;5003426;28;19959;-69
2021/08/08 10:24:24;;;;;;;;;;;;;;;-144.99;99.46;52342.09;5011307;28;19947;-69
2021/08/08 10:26:50;;;;;;;;;;;;;;;-144.99;97.56;52362.50;5014038;22;20289;-60
2021/08/08 10:29:20;;;;;;;;;;;;;;;-144.99;98.32;52350.25;4986916;28;19958;-67
2021/08/08 10:31:49;;;;;;;;;;;;;;;-144.99;96.52;52374.72;4988558;28;19949;-64
2021/08/08 10:34:15;;;;;;;;;;;;;;;-144.99;97.53;52370.63;4990436;28;20508;-66
2021/08/08 10:36:42;;;;;;;;;;;;;;;-144.99;97.51;52358.41;4991699;28;19946;-67
2021/08/08 10:39:10;;;;;;;;;;;;;;;-144.99;95.80;52366.56;4994416;28;20152;-68
2021/08/08 10:41:37;;;;;;;;;;;;;;;-144.99;95.84;52338.03;4993985;28;19964;-67
2021/08/08 10:44:04;;;;;;;;;;;;;;;-144.99;93.96;52333.94;4991515;28;19963;-65
2021/08/08 10:46:30;;;;;;;;;;;;;;;-144.99;93.33;52366.56;4993329;28;19940;-65
2021/08/08 10:49:02;;;;;;;;;;;;;;;-144.99;93.61;52366.56;4993232;28;19981;-66
2021/08/08 10:51:29;;;;;;;;;;;;;;;-144.99;93.22;52370.63;4992528;28;20397;-65
2021/08/08 10:54:02;;;;;;;;;;;;;;;-144.99;92.77;52342.09;4993944;28;19942;-69
2021/08/08 10:56:41;;;;;;;;;;;;;;;-144.99;93.44;52407.31;5006388;28;20494;-69
2021/08/08 10:59:14;;;;;;;;;;;;;;;-144.99;93.89;52311.53;4980654;28;19964;-68
2021/08/08 11:01:41;;;;;;;;;;;;;;;-144.99;93.54;52362.50;4991172;28;20293;-69
2021/08/08 11:04:09;;;;;;;;;;;;;;;-144.99;93.67;52329.88;4302970;28;10020835;-69
2021/08/08 11:06:36;;;;;;;;;;;;;;;-144.99;92.90;52336.00;4988557;28;19977;-70
2021/08/08 11:09:04;;;;;;;;;;;;;;;-144.99;92.37;52342.09;4986397;28;19972;-69
2021/08/08 11:11:31;;;;;;;;;;;;;;;-144.99;92.24;52338.03;4984227;28;20400;-70
2021/08/08 11:14:07;;;;;;;;;;;;;;;-144.99;91.81;52374.72;4982036;28;19961;-71
2021/08/08 11:16:34;;;;;;;;;;;;;;;-144.99;91.45;52354.34;4987195;28;19930;-70
2021/08/08 11:19:00;;;;;;;;;;;;;;;-144.99;91.94;52329.88;4986442;28;19958;-72
2021/08/08 11:21:28;;;;;;;;;;;;;;;-144.99;92.03;52338.03;4990130;28;20412;-72
2021/08/08 11:23:55;;;;;;;;;;;;;;;-144.99;91.83;52362.50;4989807;28;19964;-71
2021/08/08 11:26:21;;;;;;;;;;;;;;;-144.99;90.93;52346.19;4990062;28;20251;-71
2021/08/08 11:28:50;;;;;;;;;;;;;;;-144.99;91.06;52403.25;4989215;28;20182;-71
2021/08/08 11:31:18;;;;;;;;;;;;;;;-144.99;90.35;52382.88;4986516;28;19945;-71
2021/08/08 11:33:44;;;;;;;;;;;;;;;-144.99;89.86;52317.66;4984225;28;19930;-71
2021/08/08 11:36:11;;;;;;;;;;;;;;;-144.99;88.73;52297.25;4982425;28;19930;-70
2021/08/08 11:38:40;;;;;;;;;;;;;;;-144.99;85.85;52276.88;4987309;28;19925;-70
2021/08/08 11:41:08;;;;;;;;;;;;;;;-144.99;83.91;52348.22;4986827;28;19941;-70
2021/08/08 11:43:35;;;;;;;;;;;;;;;-144.99;83.19;52321.72;4985944;28;19930;-70
2021/08/08 11:46:02;;;;;;;;;;;;;;;-144.99;81.90;52276.88;4985509;28;20071;-70
2021/08/08 11:48:29;;;;;;;;;;;;;;;-144.99;80.20;52240.19;4981985;28;19933;-70
2021/08/08 11:50:56;;;;;;;;;;;;;;;-144.99;77.47;52215.75;4983349;28;19930;-69
2021/08/08 11:53:29;;;;;;;;;;;;;;;-144.99;72.92;52195.34;4981745;28;20295;-70
2021/08/08 11:55:57;;;;;;;;;;;;;;;-144.99;71.90;52260.56;4985830;28;19929;-70
2021/08/08 11:58:24;;;;;;;;;;;;;;;-144.99;70.41;52291.16;4984496;28;19944;-68
2021/08/08 12:00:50;;;;;;;;;;;;;;;-144.99;72.15;52325.81;4985812;28;19934;-69
2021/08/08 12:03:16;;;;;;;;;;;;;;;-144.99;73.50;52291.16;4983351;28;20014;-72
2021/08/08 12:05:43;;;;;;;;;;;;;;;-144.99;74.98;52317.66;4991713;28;20395;-71
2021/08/08 12:08:10;;;;;;;;;;;;;;;-144.99;74.48;52317.66;4983540;28;20251;-72
2021/08/08 12:10:37;;;;;;;;;;;;;;;-144.99;73.65;52276.88;4982341;28;19973;-72
2021/08/08 12:13:15;;;;;;;;;;;;;;;-144.99;72.01;52301.34;4981811;28;20019;-71
2021/08/08 12:15:42;;;;;;;;;;;;;;;-144.99;69.11;52174.97;4978665;28;19926;-68
2021/08/08 12:18:09;;;;;;;;;;;;;;;-144.99;68.68;52289.13;4981947;28;19930;-67